sensor_id;sensor_type;location;lat;lon;timestamp;pressure;altitude;pressure_sealevel;temperature;humidity
57791;BME280;43621;51.798;21.588;2023-02-04T00:01:05;99071.48;;;-0.09;76.30
57791;BME280;43621;51.798;21.588;2023-02-04T00:05:09;99081.35;;;-0.05;76.19
57791;BME280;43621;51.798;21.588;2023-02-04T00:09:11;99090.05;;;-0.04;75.99
57791;BME280;43621;51.798;21.588;2023-02-04T00:13:13;99100.84;;;-0.01;76.14
57791;BME280;43621;51.798;21.588;2023-02-04T00:17:15;99110.90;;;-0.03;76.02
57791;BME280;43621;51.798;21.588;2023-02-04T00:21:17;99124.13;;;-0.09;76.05
57791;BME280;43621;51.798;21.588;2023-02-04T00:25:19;99131.89;;;-0.12;76.02
57791;BME280;43621;51.798;21.588;2023-02-04T00:29:21;99142.41;;;-0.16;75.87
57791;BME280;43621;51.798;21.588;2023-02-04T00:33:23;99160.14;;;-0.17;75.91
57791;BME280;43621;51.798;21.588;2023-02-04T00:37:24;99162.67;;;-0.16;75.85
57791;BME280;43621;51.798;21.588;2023-02-04T00:41:26;99172.42;;;-0.13;75.79
57791;BME280;43621;51.798;21.588;2023-02-04T00:45:28;99179.75;;;-0.09;75.93
57791;BME280;43621;51.798;21.588;2023-02-04T00:49:32;99190.14;;;-0.08;75.88
57791;BME280;43621;51.798;21.588;2023-02-04T00:53:34;99198.38;;;-0.08;75.79
57791;BME280;43621;51.798;21.588;2023-02-04T00:57:36;99203.47;;;-0.10;75.72
57791;BME280;43621;51.798;21.588;2023-02-04T01:01:39;99216.55;;;-0.14;75.64
57791;BME280;43621;51.798;21.588;2023-02-04T01:05:40;99229.81;;;-0.17;76.00
57791;BME280;43621;51.798;21.588;2023-02-04T01:09:42;99251.71;;;-0.25;76.16
57791;BME280;43621;51.798;21.588;2023-02-04T01:13:44;99258.73;;;-0.28;76.08
57791;BME280;43621;51.798;21.588;2023-02-04T01:17:47;99268.52;;;-0.25;76.08
57791;BME280;43621;51.798;21.588;2023-02-04T01:21:48;99275.20;;;-0.22;76.13
57791;BME280;43621;51.798;21.588;2023-02-04T01:25:50;99286.92;;;-0.26;75.95
57791;BME280;43621;51.798;21.588;2023-02-04T01:29:52;99285.19;;;-0.32;76.03
57791;BME280;43621;51.798;21.588;2023-02-04T01:33:54;99287.48;;;-0.39;75.86
57791;BME280;43621;51.798;21.588;2023-02-04T01:37:56;99299.66;;;-0.42;76.05
57791;BME280;43621;51.798;21.588;2023-02-04T01:41:58;99308.60;;;-0.45;75.98
57791;BME280;43621;51.798;21.588;2023-02-04T01:46:02;99323.85;;;-0.45;76.05
57791;BME280;43621;51.798;21.588;2023-02-04T01:50:05;99340.48;;;-0.45;76.14
57791;BME280;43621;51.798;21.588;2023-02-04T01:54:10;99348.88;;;-0.45;76.18
57791;BME280;43621;51.798;21.588;2023-02-04T01:58:13;99359.08;;;-0.43;76.09
57791;BME280;43621;51.798;21.588;2023-02-04T02:02:46;99379.10;;;-0.43;76.17
57791;BME280;43621;51.798;21.588;2023-02-04T02:06:52;99400.14;;;-0.45;76.11
57791;BME280;43621;51.798;21.588;2023-02-04T02:10:56;99413.79;;;-0.47;76.04
57791;BME280;43621;51.798;21.588;2023-02-04T02:14:58;99424.25;;;-0.44;76.03
57791;BME280;43621;51.798;21.588;2023-02-04T02:19:00;99435.45;;;-0.42;76.04
57791;BME280;43621;51.798;21.588;2023-02-04T02:23:19;99450.93;;;-0.43;76.07
57791;BME280;43621;51.798;21.588;2023-02-04T02:27:24;99462.48;;;-0.47;75.96
57791;BME280;43621;51.798;21.588;2023-02-04T02:31:26;99476.50;;;-0.49;75.99
57791;BME280;43621;51.798;21.588;2023-02-04T02:35:28;99491.07;;;-0.49;76.19
57791;BME280;43621;51.798;21.588;2023-02-04T02:39:30;99507.30;;;-0.48;76.17
57791;BME280;43621;51.798;21.588;2023-02-04T02:43:32;99522.91;;;-0.48;76.05
57791;BME280;43621;51.798;21.588;2023-02-04T02:47:35;99540.20;;;-0.48;76.16
57791;BME280;43621;51.798;21.588;2023-02-04T02:51:37;99556.65;;;-0.48;76.19
57791;BME280;43621;51.798;21.588;2023-02-04T02:55:40;99571.90;;;-0.47;76.10
57791;BME280;43621;51.798;21.588;2023-02-04T02:59:42;99582.71;;;-0.48;76.00
57791;BME280;43621;51.798;21.588;2023-02-04T03:03:47;99601.75;;;-0.44;75.93
57791;BME280;43621;51.798;21.588;2023-02-04T03:07:50;99621.46;;;-0.41;75.89
57791;BME280;43621;51.798;21.588;2023-02-04T03:11:53;99639.84;;;-0.39;75.74
57791;BME280;43621;51.798;21.588;2023-02-04T03:15:55;99646.34;;;-0.35;75.76
57791;BME280;43621;51.798;21.588;2023-02-04T03:19:57;99655.86;;;-0.33;75.71
57791;BME280;43621;51.798;21.588;2023-02-04T03:24:00;99673.15;;;-0.29;75.80
57791;BME280;43621;51.798;21.588;2023-02-04T03:28:02;99688.11;;;-0.27;75.72
57791;BME280;43621;51.798;21.588;2023-02-04T03:32:04;99701.97;;;-0.29;75.66
57791;BME280;43621;51.798;21.588;2023-02-04T03:36:08;99711.96;;;-0.34;75.66
57791;BME280;43621;51.798;21.588;2023-02-04T03:40:11;99727.90;;;-0.40;75.57
57791;BME280;43621;51.798;21.588;2023-02-04T03:44:12;99738.19;;;-0.47;75.61
57791;BME280;43621;51.798;21.588;2023-02-04T03:48:15;99758.98;;;-0.51;75.42
57791;BME280;43621;51.798;21.588;2023-02-04T03:52:16;99775.98;;;-0.55;75.38
57791;BME280;43621;51.798;21.588;2023-02-04T03:56:18;99788.58;;;-0.60;75.28
57791;BME280;43621;51.798;21.588;2023-02-04T04:00:20;99806.34;;;-0.66;75.18
57791;BME280;43621;51.798;21.588;2023-02-04T04:04:22;99825.21;;;-0.70;75.27
57791;BME280;43621;51.798;21.588;2023-02-04T04:08:24;99843.30;;;-0.68;75.30
57791;BME280;43621;51.798;21.588;2023-02-04T04:12:26;99856.58;;;-0.63;75.36
57791;BME280;43621;51.798;21.588;2023-02-04T04:16:28;99868.45;;;-0.56;75.38
57791;BME280;43621;51.798;21.588;2023-02-04T04:20:30;99881.59;;;-0.52;75.40
57791;BME280;43621;51.798;21.588;2023-02-04T04:24:32;99891.85;;;-0.54;75.28
57791;BME280;43621;51.798;21.588;2023-02-04T04:28:34;99903.04;;;-0.59;75.31
57791;BME280;43621;51.798;21.588;2023-02-04T04:32:36;99915.41;;;-0.63;75.28
57791;BME280;43621;51.798;21.588;2023-02-04T04:36:38;99928.68;;;-0.69;75.24
57791;BME280;43621;51.798;21.588;2023-02-04T04:40:40;99948.23;;;-0.72;75.10
57791;BME280;43621;51.798;21.588;2023-02-04T04:44:42;99959.19;;;-0.72;75.11
57791;BME280;43621;51.798;21.588;2023-02-04T04:48:43;99972.64;;;-0.70;75.15
57791;BME280;43621;51.798;21.588;2023-02-04T04:52:45;99981.34;;;-0.73;74.95
57791;BME280;43621;51.798;21.588;2023-02-04T04:56:47;99995.34;;;-0.76;74.84
57791;BME280;43621;51.798;21.588;2023-02-04T05:00:49;100018.27;;;-0.79;74.71
57791;BME280;43621;51.798;21.588;2023-02-04T05:04:51;100037.95;;;-0.86;74.64
57791;BME280;43621;51.798;21.588;2023-02-04T05:08:53;100051.15;;;-0.94;74.82
57791;BME280;43621;51.798;21.588;2023-02-04T05:12:55;100064.86;;;-1.02;74.81
57791;BME280;43621;51.798;21.588;2023-02-04T05:16:57;100077.75;;;-1.11;74.76
57791;BME280;43621;51.798;21.588;2023-02-04T05:20:59;100090.88;;;-1.22;74.55
57791;BME280;43621;51.798;21.588;2023-02-04T05:25:00;100108.52;;;-1.31;74.49
57791;BME280;43621;51.798;21.588;2023-02-04T05:29:03;100119.52;;;-1.36;74.55
57791;BME280;43621;51.798;21.588;2023-02-04T05:33:05;100135.80;;;-1.36;74.73
57791;BME280;43621;51.798;21.588;2023-02-04T05:37:07;100145.95;;;-1.28;74.91
57791;BME280;43621;51.798;21.588;2023-02-04T05:41:08;100156.27;;;-1.21;74.90
57791;BME280;43621;51.798;21.588;2023-02-04T05:45:14;100162.42;;;-1.16;74.97
57791;BME280;43621;51.798;21.588;2023-02-04T05:49:16;100173.08;;;-1.13;75.05
57791;BME280;43621;51.798;21.588;2023-02-04T05:53:18;100186.84;;;-1.10;75.02
57791;BME280;43621;51.798;21.588;2023-02-04T05:57:20;100201.19;;;-1.09;75.01
57791;BME280;43621;51.798;21.588;2023-02-04T06:01:22;100212.14;;;-1.05;74.87
57791;BME280;43621;51.798;21.588;2023-02-04T06:05:24;100223.63;;;-1.01;74.75
57791;BME280;43621;51.798;21.588;2023-02-04T06:09:26;100230.94;;;-0.95;74.77
57791;BME280;43621;51.798;21.588;2023-02-04T06:13:28;100241.87;;;-0.90;74.66
57791;BME280;43621;51.798;21.588;2023-02-04T06:17:30;100261.69;;;-0.88;74.74
57791;BME280;43621;51.798;21.588;2023-02-04T06:21:31;100272.36;;;-0.89;74.65
57791;BME280;43621;51.798;21.588;2023-02-04T06:25:33;100285.38;;;-0.89;74.69
57791;BME280;43621;51.798;21.588;2023-02-04T06:29:35;100298.30;;;-0.86;74.60
57791;BME280;43621;51.798;21.588;2023-02-04T06:33:37;100313.73;;;-0.82;74.53
57791;BME280;43621;51.798;21.588;2023-02-04T06:37:39;100330.55;;;-0.79;74.54
57791;BME280;43621;51.798;21.588;2023-02-04T06:41:41;100342.16;;;-0.73;74.61
57791;BME280;43621;51.798;21.588;2023-02-04T06:45:43;100347.21;;;-0.71;74.58
57791;BME280;43621;51.798;21.588;2023-02-04T06:49:45;100361.30;;;-0.72;74.49
57791;BME280;43621;51.798;21.588;2023-02-04T06:53:47;100374.00;;;-0.68;74.59
57791;BME280;43621;51.798;21.588;2023-02-04T06:57:48;100386.56;;;-0.56;74.68
57791;BME280;43621;51.798;21.588;2023-02-04T07:01:50;100396.89;;;-0.40;74.62
57791;BME280;43621;51.798;21.588;2023-02-04T07:05:52;100408.00;;;-0.26;74.45
57791;BME280;43621;51.798;21.588;2023-02-04T07:09:54;100420.23;;;-0.14;74.37
57791;BME280;43621;51.798;21.588;2023-02-04T07:13:56;100429.04;;;-0.03;74.31
57791;BME280;43621;51.798;21.588;2023-02-04T07:17:58;100438.95;;;0.03;74.15
57791;BME280;43621;51.798;21.588;2023-02-04T07:22:02;100446.85;;;0.07;74.11
57791;BME280;43621;51.798;21.588;2023-02-04T07:26:04;100460.61;;;0.11;74.01
57791;BME280;43621;51.798;21.588;2023-02-04T07:30:08;100473.15;;;0.15;73.97
57791;BME280;43621;51.798;21.588;2023-02-04T07:34:12;100478.06;;;0.20;73.69
57791;BME280;43621;51.798;21.588;2023-02-04T07:38:14;100490.38;;;0.30;73.56
57791;BME280;43621;51.798;21.588;2023-02-04T07:42:16;100501.90;;;0.42;73.69
57791;BME280;43621;51.798;21.588;2023-02-04T07:46:18;100512.48;;;0.60;73.71
57791;BME280;43621;51.798;21.588;2023-02-04T07:50:20;100525.52;;;0.77;73.61
57791;BME280;43621;51.798;21.588;2023-02-04T07:54:22;100538.90;;;0.85;73.40
57791;BME280;43621;51.798;21.588;2023-02-04T07:58:24;100547.42;;;0.83;72.76
57791;BME280;43621;51.798;21.588;2023-02-04T08:02:26;100552.98;;;0.85;72.63
57791;BME280;43621;51.798;21.588;2023-02-04T08:06:28;100559.77;;;0.91;72.04
57791;BME280;43621;51.798;21.588;2023-02-04T08:10:29;100567.26;;;1.29;71.80
57791;BME280;43621;51.798;21.588;2023-02-04T08:14:31;100573.23;;;2.20;71.62
57791;BME280;43621;51.798;21.588;2023-02-04T08:18:33;100580.64;;;3.38;71.86
57791;BME280;43621;51.798;21.588;2023-02-04T08:22:35;100590.36;;;4.93;71.44
57791;BME280;43621;51.798;21.588;2023-02-04T08:26:38;100592.70;;;6.39;69.33
57791;BME280;43621;51.798;21.588;2023-02-04T08:30:40;100598.05;;;8.27;66.73
57791;BME280;43621;51.798;21.588;2023-02-04T08:34:42;100599.02;;;10.87;64.15
57791;BME280;43621;51.798;21.588;2023-02-04T08:38:44;100603.63;;;13.01;62.18
57791;BME280;43621;51.798;21.588;2023-02-04T08:42:46;100607.02;;;14.95;58.17
57791;BME280;43621;51.798;21.588;2023-02-04T08:46:48;100617.07;;;16.24;57.10
57791;BME280;43621;51.798;21.588;2023-02-04T08:50:50;100619.63;;;17.82;54.94
57791;BME280;43621;51.798;21.588;2023-02-04T08:54:52;100623.67;;;19.43;52.60
57791;BME280;43621;51.798;21.588;2023-02-04T08:58:53;100621.17;;;21.92;49.09
57791;BME280;43621;51.798;21.588;2023-02-04T09:02:55;100629.64;;;23.55;44.85
57791;BME280;43621;51.798;21.588;2023-02-04T09:06:57;100640.20;;;25.16;41.34
57791;BME280;43621;51.798;21.588;2023-02-04T09:10:59;100647.24;;;25.92;38.54
57791;BME280;43621;51.798;21.588;2023-02-04T09:15:01;100656.58;;;27.00;37.28
57791;BME280;43621;51.798;21.588;2023-02-04T09:19:03;100668.23;;;27.57;36.00
57791;BME280;43621;51.798;21.588;2023-02-04T09:23:06;100676.05;;;28.44;34.34
57791;BME280;43621;51.798;21.588;2023-02-04T09:27:12;100677.70;;;28.20;30.46
57791;BME280;43621;51.798;21.588;2023-02-04T09:31:14;100683.94;;;28.34;30.32
57791;BME280;43621;51.798;21.588;2023-02-04T09:35:16;100693.88;;;28.63;30.78
57791;BME280;43621;51.798;21.588;2023-02-04T09:39:18;100704.03;;;28.83;28.67
57791;BME280;43621;51.798;21.588;2023-02-04T09:43:23;100702.79;;;28.19;26.71
57791;BME280;43621;51.798;21.588;2023-02-04T09:47:26;100707.73;;;26.76;25.72
57791;BME280;43621;51.798;21.588;2023-02-04T09:51:29;100718.78;;;23.99;27.10
57791;BME280;43621;51.798;21.588;2023-02-04T09:55:37;100719.49;;;22.54;26.67
57791;BME280;43621;51.798;21.588;2023-02-04T09:59:40;100719.90;;;23.02;28.03
57791;BME280;43621;51.798;21.588;2023-02-04T10:03:44;100727.45;;;23.38;27.11
57791;BME280;43621;51.798;21.588;2023-02-04T10:07:47;100736.14;;;23.63;26.30
57791;BME280;43621;51.798;21.588;2023-02-04T10:11:49;100741.75;;;23.19;24.98
57791;BME280;43621;51.798;21.588;2023-02-04T10:15:51;100741.98;;;21.34;24.69
57791;BME280;43621;51.798;21.588;2023-02-04T10:19:54;100753.34;;;20.72;26.18
57791;BME280;43621;51.798;21.588;2023-02-04T10:23:57;100754.01;;;20.57;26.75
57791;BME280;43621;51.798;21.588;2023-02-04T10:28:00;100754.41;;;20.66;28.08
57791;BME280;43621;51.798;21.588;2023-02-04T10:32:01;100751.63;;;21.56;29.63
57791;BME280;43621;51.798;21.588;2023-02-04T10:36:04;100748.22;;;22.01;28.84
57791;BME280;43621;51.798;21.588;2023-02-04T10:44:27;100748.41;;;21.98;28.36
57791;BME280;43621;51.798;21.588;2023-02-04T10:48:38;100752.85;;;21.73;27.70
57791;BME280;43621;51.798;21.588;2023-02-04T10:52:43;100758.77;;;21.33;28.56
57791;BME280;43621;51.798;21.588;2023-02-04T10:56:46;100763.96;;;21.57;27.86
57791;BME280;43621;51.798;21.588;2023-02-04T11:00:48;100766.02;;;20.63;26.40
57791;BME280;43621;51.798;21.588;2023-02-04T11:04:50;100776.23;;;19.21;26.41
57791;BME280;43621;51.798;21.588;2023-02-04T11:08:53;100779.52;;;17.86;25.42
57791;BME280;43621;51.798;21.588;2023-02-04T11:16:57;100793.94;;;13.21;27.89
57791;BME280;43621;51.798;21.588;2023-02-04T11:21:13;100804.41;;;11.20;29.27
57791;BME280;43621;51.798;21.588;2023-02-04T11:25:35;100813.29;;;9.42;30.56
57791;BME280;43621;51.798;21.588;2023-02-04T11:29:40;100812.58;;;8.02;31.97
57791;BME280;43621;51.798;21.588;2023-02-04T11:33:43;100817.62;;;6.82;32.98
57791;BME280;43621;51.798;21.588;2023-02-04T11:37:45;100818.65;;;5.87;34.18
57791;BME280;43621;51.798;21.588;2023-02-04T11:41:47;100820.23;;;4.88;35.18
57791;BME280;43621;51.798;21.588;2023-02-04T11:46:01;100824.55;;;4.10;36.58
57791;BME280;43621;51.798;21.588;2023-02-04T11:50:19;100830.11;;;3.40;37.69
57791;BME280;43621;51.798;21.588;2023-02-04T11:54:22;100833.94;;;2.85;38.48
57791;BME280;43621;51.798;21.588;2023-02-04T11:58:25;100836.11;;;2.40;39.64
57791;BME280;43621;51.798;21.588;2023-02-04T12:02:40;100843.24;;;1.98;40.53
57791;BME280;43621;51.798;21.588;2023-02-04T12:06:43;100849.42;;;1.82;40.56
57791;BME280;43621;51.798;21.588;2023-02-04T12:10:50;100856.02;;;1.73;41.10
57791;BME280;43621;51.798;21.588;2023-02-04T12:15:23;100854.55;;;1.63;41.71
57791;BME280;43621;51.798;21.588;2023-02-04T12:19:26;100858.69;;;1.50;42.16
57791;BME280;43621;51.798;21.588;2023-02-04T12:23:29;100860.81;;;1.40;42.23
57791;BME280;43621;51.798;21.588;2023-02-04T12:27:31;100866.54;;;1.39;42.42
57791;BME280;43621;51.798;21.588;2023-02-04T12:31:33;100869.01;;;1.37;42.70
57791;BME280;43621;51.798;21.588;2023-02-04T12:35:35;100876.88;;;1.34;42.99
57791;BME280;43621;51.798;21.588;2023-02-04T12:39:37;100885.46;;;1.24;43.55
57791;BME280;43621;51.798;21.588;2023-02-04T12:43:39;100894.62;;;1.14;43.55
57791;BME280;43621;51.798;21.588;2023-02-04T12:47:41;100895.38;;;1.04;44.34
57791;BME280;43621;51.798;21.588;2023-02-04T12:51:43;100895.88;;;0.90;44.96
57791;BME280;43621;51.798;21.588;2023-02-04T12:55:45;100899.08;;;0.91;45.22
57791;BME280;43621;51.798;21.588;2023-02-04T12:59:47;100897.14;;;0.98;45.59
57791;BME280;43621;51.798;21.588;2023-02-04T13:03:52;100902.60;;;0.99;45.88
57791;BME280;43621;51.798;21.588;2023-02-04T13:07:54;100902.16;;;1.06;46.08
57791;BME280;43621;51.798;21.588;2023-02-04T13:11:56;100911.44;;;1.15;46.20
57791;BME280;43621;51.798;21.588;2023-02-04T13:15:58;100919.58;;;1.18;46.49
57791;BME280;43621;51.798;21.588;2023-02-04T13:20:00;100920.35;;;1.21;46.67
57791;BME280;43621;51.798;21.588;2023-02-04T13:24:01;100921.29;;;1.23;46.94
57791;BME280;43621;51.798;21.588;2023-02-04T13:28:04;100924.31;;;1.30;47.29
57791;BME280;43621;51.798;21.588;2023-02-04T13:32:06;100927.98;;;1.33;47.45
57791;BME280;43621;51.798;21.588;2023-02-04T13:36:08;100930.60;;;1.22;47.50
57791;BME280;43621;51.798;21.588;2023-02-04T13:40:10;100931.86;;;1.07;47.94
57791;BME280;43621;51.798;21.588;2023-02-04T13:44:12;100940.97;;;0.93;47.96
57791;BME280;43621;51.798;21.588;2023-02-04T13:48:15;100942.54;;;0.83;48.40
57791;BME280;43621;51.798;21.588;2023-02-04T13:52:17;100955.64;;;0.77;48.41
57791;BME280;43621;51.798;21.588;2023-02-04T13:56:19;100961.27;;;0.73;48.50
57791;BME280;43621;51.798;21.588;2023-02-04T14:00:21;100964.53;;;0.69;48.64
57791;BME280;43621;51.798;21.588;2023-02-04T14:04:23;100968.84;;;0.63;48.61
57791;BME280;43621;51.798;21.588;2023-02-04T14:08:27;100976.10;;;0.57;48.58
57791;BME280;43621;51.798;21.588;2023-02-04T14:12:29;100987.39;;;0.49;48.86
57791;BME280;43621;51.798;21.588;2023-02-04T14:16:31;100991.48;;;0.45;48.78
57791;BME280;43621;51.798;21.588;2023-02-04T14:20:33;100994.49;;;0.47;48.86
57791;BME280;43621;51.798;21.588;2023-02-04T14:24:35;100996.85;;;0.49;49.07
57791;BME280;43621;51.798;21.588;2023-02-04T14:28:39;100999.64;;;0.47;49.03
57791;BME280;43621;51.798;21.588;2023-02-04T14:32:41;101005.27;;;0.48;49.20
57791;BME280;43621;51.798;21.588;2023-02-04T14:36:42;101006.02;;;0.36;49.32
57791;BME280;43621;51.798;21.588;2023-02-04T14:40:44;101014.08;;;0.26;49.42
57791;BME280;43621;51.798;21.588;2023-02-04T14:44:46;101018.98;;;0.12;49.53
57791;BME280;43621;51.798;21.588;2023-02-04T14:48:48;101024.08;;;-0.03;49.68
57791;BME280;43621;51.798;21.588;2023-02-04T14:52:53;101028.14;;;-0.12;49.99
57791;BME280;43621;51.798;21.588;2023-02-04T14:56:57;101032.15;;;-0.20;50.12
57791;BME280;43621;51.798;21.588;2023-02-04T15:00:59;101032.02;;;-0.27;50.24
57791;BME280;43621;51.798;21.588;2023-02-04T15:05:01;101037.77;;;-0.29;50.26
57791;BME280;43621;51.798;21.588;2023-02-04T15:09:03;101041.91;;;-0.31;50.30
57791;BME280;43621;51.798;21.588;2023-02-04T15:13:05;101047.13;;;-0.33;50.32
57791;BME280;43621;51.798;21.588;2023-02-04T15:17:07;101051.23;;;-0.39;50.44
57791;BME280;43621;51.798;21.588;2023-02-04T15:21:09;101055.70;;;-0.45;50.62
57791;BME280;43621;51.798;21.588;2023-02-04T15:25:12;101057.05;;;-0.49;50.82
57791;BME280;43621;51.798;21.588;2023-02-04T15:29:14;101059.95;;;-0.49;50.83
57791;BME280;43621;51.798;21.588;2023-02-04T15:33:16;101063.54;;;-0.55;50.78
57791;BME280;43621;51.798;21.588;2023-02-04T15:37:18;101070.41;;;-0.61;50.87
57791;BME280;43621;51.798;21.588;2023-02-04T15:41:19;101076.89;;;-0.66;51.01
57791;BME280;43621;51.798;21.588;2023-02-04T15:45:21;101082.79;;;-0.75;51.16
57791;BME280;43621;51.798;21.588;2023-02-04T15:49:23;101091.44;;;-0.84;51.14
57791;BME280;43621;51.798;21.588;2023-02-04T15:53:25;101097.87;;;-0.87;51.30
57791;BME280;43621;51.798;21.588;2023-02-04T15:57:27;101099.81;;;-0.89;51.40
57791;BME280;43621;51.798;21.588;2023-02-04T16:01:29;101105.34;;;-0.91;51.61
57791;BME280;43621;51.798;21.588;2023-02-04T16:05:31;101109.69;;;-0.93;51.56
57791;BME280;43621;51.798;21.588;2023-02-04T16:09:34;101114.77;;;-0.91;51.66
57791;BME280;43621;51.798;21.588;2023-02-04T16:13:36;101121.78;;;-0.90;51.81
57791;BME280;43621;51.798;21.588;2023-02-04T16:17:38;101129.38;;;-0.86;51.94
57791;BME280;43621;51.798;21.588;2023-02-04T16:21:40;101131.58;;;-0.85;52.15
57791;BME280;43621;51.798;21.588;2023-02-04T16:25:42;101138.33;;;-0.87;52.10
57791;BME280;43621;51.798;21.588;2023-02-04T16:29:44;101139.11;;;-0.91;52.30
57791;BME280;43621;51.798;21.588;2023-02-04T16:33:46;101144.89;;;-0.96;52.37
57791;BME280;43621;51.798;21.588;2023-02-04T16:37:48;101153.73;;;-1.00;52.47
57791;BME280;43621;51.798;21.588;2023-02-04T16:41:50;101151.17;;;-1.01;52.56
57791;BME280;43621;51.798;21.588;2023-02-04T16:45:53;101151.05;;;-1.02;52.61
57791;BME280;43621;51.798;21.588;2023-02-04T16:49:55;101155.92;;;-1.05;52.62
57791;BME280;43621;51.798;21.588;2023-02-04T16:54:01;101161.20;;;-1.04;52.74
57791;BME280;43621;51.798;21.588;2023-02-04T16:58:03;101166.45;;;-1.01;52.90
57791;BME280;43621;51.798;21.588;2023-02-04T17:02:05;101168.21;;;-0.96;52.98
57791;BME280;43621;51.798;21.588;2023-02-04T17:06:07;101174.41;;;-0.90;53.00
57791;BME280;43621;51.798;21.588;2023-02-04T17:10:09;101178.75;;;-0.86;53.05
57791;BME280;43621;51.798;21.588;2023-02-04T17:14:12;101181.61;;;-0.84;53.11
57791;BME280;43621;51.798;21.588;2023-02-04T17:18:16;101188.54;;;-0.80;53.21
57791;BME280;43621;51.798;21.588;2023-02-04T17:22:18;101194.36;;;-0.74;53.38
57791;BME280;43621;51.798;21.588;2023-02-04T17:26:20;101203.64;;;-0.68;53.41
57791;BME280;43621;51.798;21.588;2023-02-04T17:30:22;101208.99;;;-0.69;53.32
57791;BME280;43621;51.798;21.588;2023-02-04T17:34:24;101215.94;;;-0.65;53.38
57791;BME280;43621;51.798;21.588;2023-02-04T17:38:26;101218.96;;;-0.63;53.47
57791;BME280;43621;51.798;21.588;2023-02-04T17:42:28;101234.46;;;-0.66;53.44
57791;BME280;43621;51.798;21.588;2023-02-04T17:46:30;101241.66;;;-0.66;53.60
57791;BME280;43621;51.798;21.588;2023-02-04T17:50:32;101238.45;;;-0.61;53.76
57791;BME280;43621;51.798;21.588;2023-02-04T17:54:37;101233.80;;;-0.60;53.73
57791;BME280;43621;51.798;21.588;2023-02-04T17:58:40;101234.88;;;-0.62;53.79
57791;BME280;43621;51.798;21.588;2023-02-04T18:02:46;101237.13;;;-0.69;53.72
57791;BME280;43621;51.798;21.588;2023-02-04T18:06:50;101241.67;;;-0.80;53.74
57791;BME280;43621;51.798;21.588;2023-02-04T18:10:54;101247.08;;;-0.91;53.90
57791;BME280;43621;51.798;21.588;2023-02-04T18:14:57;101248.35;;;-1.01;54.13
57791;BME280;43621;51.798;21.588;2023-02-04T18:19:27;101252.94;;;-1.07;54.22
57791;BME280;43621;51.798;21.588;2023-02-04T18:23:31;101256.27;;;-1.10;54.33
57791;BME280;43621;51.798;21.588;2023-02-04T18:27:33;101252.70;;;-1.11;54.51
57791;BME280;43621;51.798;21.588;2023-02-04T18:36:17;101264.88;;;-1.19;54.74
57791;BME280;43621;51.798;21.588;2023-02-04T18:40:29;101273.23;;;-1.17;54.94
57791;BME280;43621;51.798;21.588;2023-02-04T18:44:34;101278.32;;;-1.15;54.99
57791;BME280;43621;51.798;21.588;2023-02-04T18:49:18;101278.13;;;-1.14;55.11
57791;BME280;43621;51.798;21.588;2023-02-04T18:53:28;101279.02;;;-1.16;55.12
57791;BME280;43621;51.798;21.588;2023-02-04T18:57:36;101280.14;;;-1.19;55.16
57791;BME280;43621;51.798;21.588;2023-02-04T19:01:38;101285.79;;;-1.19;55.31
57791;BME280;43621;51.798;21.588;2023-02-04T19:05:50;101287.30;;;-1.18;55.39
57791;BME280;43621;51.798;21.588;2023-02-04T19:09:55;101292.07;;;-1.16;55.45
57791;BME280;43621;51.798;21.588;2023-02-04T19:14:01;101298.02;;;-1.15;55.55
57791;BME280;43621;51.798;21.588;2023-02-04T19:18:18;101303.24;;;-1.18;55.51
57791;BME280;43621;51.798;21.588;2023-02-04T19:26:42;101313.00;;;-1.11;55.61
57791;BME280;43621;51.798;21.588;2023-02-04T19:30:48;101319.49;;;-1.09;55.59
57791;BME280;43621;51.798;21.588;2023-02-04T19:34:52;101325.54;;;-1.11;55.56
57791;BME280;43621;51.798;21.588;2023-02-04T19:39:11;101331.76;;;-1.14;55.63
57791;BME280;43621;51.798;21.588;2023-02-04T19:43:36;101332.95;;;-1.13;55.73
57791;BME280;43621;51.798;21.588;2023-02-04T19:47:43;101334.11;;;-1.12;55.75
57791;BME280;43621;51.798;21.588;2023-02-04T19:51:47;101330.52;;;-1.12;55.82
57791;BME280;43621;51.798;21.588;2023-02-04T19:55:50;101327.44;;;-1.12;55.83
57791;BME280;43621;51.798;21.588;2023-02-04T19:59:54;101330.67;;;-1.11;55.86
57791;BME280;43621;51.798;21.588;2023-02-04T20:03:56;101330.86;;;-1.12;55.87
57791;BME280;43621;51.798;21.588;2023-02-04T20:07:59;101338.40;;;-1.12;55.91
57791;BME280;43621;51.798;21.588;2023-02-04T20:12:13;101345.94;;;-1.12;55.96
57791;BME280;43621;51.798;21.588;2023-02-04T20:16:38;101349.36;;;-1.12;56.05
57791;BME280;43621;51.798;21.588;2023-02-04T20:20:40;101356.70;;;-1.11;56.11
57791;BME280;43621;51.798;21.588;2023-02-04T20:24:50;101357.30;;;-1.14;55.96
57791;BME280;43621;51.798;21.588;2023-02-04T20:28:52;101356.80;;;-1.23;55.86
57791;BME280;43621;51.798;21.588;2023-02-04T20:32:56;101360.02;;;-1.31;55.90
57791;BME280;43621;51.798;21.588;2023-02-04T20:36:58;101363.24;;;-1.38;56.01
57791;BME280;43621;51.798;21.588;2023-02-04T20:41:11;101364.54;;;-1.43;56.19
57791;BME280;43621;51.798;21.588;2023-02-04T20:45:25;101370.48;;;-1.49;56.23
57791;BME280;43621;51.798;21.588;2023-02-04T20:49:27;101373.27;;;-1.51;56.32
57791;BME280;43621;51.798;21.588;2023-02-04T20:53:39;101378.23;;;-1.51;56.36
57791;BME280;43621;51.798;21.588;2023-02-04T20:57:41;101382.67;;;-1.50;56.55
57791;BME280;43621;51.798;21.588;2023-02-04T21:01:45;101385.08;;;-1.50;56.47
57791;BME280;43621;51.798;21.588;2023-02-04T21:05:48;101387.92;;;-1.56;56.32
57791;BME280;43621;51.798;21.588;2023-02-04T21:09:50;101388.20;;;-1.62;56.44
57791;BME280;43621;51.798;21.588;2023-02-04T21:13:52;101392.90;;;-1.66;56.57
57791;BME280;43621;51.798;21.588;2023-02-04T21:17:54;101400.04;;;-1.72;56.47
57791;BME280;43621;51.798;21.588;2023-02-04T21:21:56;101408.88;;;-1.78;56.43